world map with GAJ marked

GAJ - Airport

This information may not be accurate or current and is not valid for navigation or flight planning. No warranty of fitness for any purpose is made or implied.

flag of Yamagataflag of Japan

Donate via PayPal

Additional information is available on the NEW Great Circle Mapper

Location
City:  Yamagata, Yamagata, Japan
Near (Alt.):Higashine
Name:Yamagata Airport
ICAO / IATA:RJSC / GAJ

Details
Type:Airport (Aerodrome, Airfield)
Use:Public/Civil, Military
Latitude:38°24'43"N (38.411894)
Longitude:140°22'17"E (140.371331)
Datum:WGS 1984
Elevation:353 ft (108 m)
Runways:1
Longest:6560 × 150 ft (1999 × 45.5 m)

Time
Timezone:UTC+9 (DST+11)
Local Time:

Weather
METAR:RJSC  041000Z 28012KT 240V320 9999 FEW010 SCT040 BKN070 01/M06 Q1018
TAF:RJSC  (expired)

Related Locations
Nearby:
Farthest:SUEX: 12100 mi / 19473 km
Montevideo East [Montevideo East UIR], UY

Find:

   beyond  
but within

Other Information
Maps:
Sources:

  


 


Great Circle Mapper   Great Circle Mapper
Great Circle Mapper FAQ   Great Circle Mapper FAQ
  Karl's Home Page
KLSē   KLSē Home
   GC on Facebook
Airlines of the World   Airlines of the World
Donate via PayPal


Copyright © 2004-2019, Karl L. Swartz. All rights reserved.
All trademarks mentioned herein belong to their respective owners.

Please see credits for attribution and copyright information.

Karl Swartz <karl@kls2.com>
  Powered by FreeBSD
Valid HTML 4.01!
Labeled with ICRA
hCard Microformat
Geo Microformat